This is the latest recevied weather packets stored in our database for station/object PU5BHV. If no packets are shown the sender has not sent any weather packets the latest 1 day(s).
| Time | Temp. | Humidity | Pressure | Rain* | Wind** | Luminosity | Snow |
|---|---|---|---|---|---|---|---|
| 1778010799 | 26.67° C | 79% | 1017.7 hPa | 0 mm | 0 m/s | 26 W/m² | - |
| 1778010496 | 27.22° C | 78% | 1018 hPa | 0 mm | 0 m/s | 57 W/m² | - |
| 1778010193 | 27.78° C | 76% | 1017.6 hPa | 0 mm | 0.89 m/s, 300° | 69 W/m² | - |
| 1778009888 | 27.78° C | 76% | 1017.5 hPa | 0 mm | 0 m/s | 81 W/m² | - |
| 1778009587 | 27.78° C | 74% | 1017.6 hPa | 0 mm | 0.45 m/s, 337° | 89 W/m² | - |
| 1778009284 | 28.33° C | 73% | 1017.6 hPa | 0 mm | 0.45 m/s, 315° | 106 W/m² | - |
| 1778008982 | 29.44° C | 71% | 1017.4 hPa | 0 mm | 0.45 m/s, 334° | 119 W/m² | - |
| 1778008680 | 29.44° C | 70% | 1017.5 hPa | 0 mm | 0 m/s | 139 W/m² | - |
| 1778008378 | 28.33° C | 71% | 1017.5 hPa | 0 mm | 0 m/s | 154 W/m² | - |
| 1778008074 | 28.89° C | 70% | 1017.5 hPa | 0 mm | 0.89 m/s, 305° | 163 W/m² | - |
| 1778007769 | 28.89° C | 70% | 1017.5 hPa | 0 mm | 0.45 m/s, 324° | 190 W/m² | - |
| 1778007466 | 28.89° C | 71% | 1017.2 hPa | 0 mm | 0 m/s | 200 W/m² | - |
| 1778007162 | 28.33° C | 72% | 1017.5 hPa | 0 mm | 0.45 m/s, 313° | 210 W/m² | - |
| 1778006858 | 28.89° C | 70% | 1017.6 hPa | 0 mm | 0.89 m/s, 332° | 238 W/m² | - |
| 1778006556 | 30° C | 68% | 1017.6 hPa | 0 mm | 0.45 m/s, 304° | 248 W/m² | - |
| 1778006252 | 30° C | 67% | 1017.6 hPa | 0 mm | 0.45 m/s, 328° | 266 W/m² | - |
| 1778005951 | 28.89° C | 67% | 1017.7 hPa | 0 mm | 0.45 m/s, 321° | 288 W/m² | - |
| 1778005646 | 29.44° C | 66% | 1017.6 hPa | 0 mm | 1.34 m/s, 320° | 306 W/m² | - |
| 1778005343 | 30° C | 67% | 1017.5 hPa | 0 mm | 0.89 m/s, 281° | 325 W/m² | - |
| 1778005039 | 29.44° C | 66% | 1017.7 hPa | 0 mm | 0.45 m/s, 299° | 336 W/m² | - |
| 1778004737 | 28.89° C | 68% | 1017.8 hPa | 0 mm | 0.45 m/s, 298° | 340 W/m² | - |
| 1778004434 | 28.89° C | 67% | 1017.7 hPa | 0 mm | 0.89 m/s, 305° | 358 W/m² | - |
| 1778004130 | 30° C | 67% | 1017.8 hPa | 0 mm | 0.45 m/s, 317° | 368 W/m² | - |
| 1778003826 | 30° C | 65% | 1017.8 hPa | 0 mm | 0.89 m/s, 328° | 393 W/m² | - |
| 1778003523 | 29.44° C | 66% | 1018 hPa | 0 mm | 0 m/s | 357 W/m² | - |
* Rain latest hour (hover to see other rain measurements)
** Current wind speed in m/s (hover to see current wind gust speed)